sensor_id;sensor_type;location;lat;lon;timestamp;P1;durP1;ratioP1;P2;durP2;ratioP2
35699;SDS011;21818;51.078;12.108;2022-12-18T00:02:15;4.78;;;2.67;;
35699;SDS011;21818;51.078;12.108;2022-12-18T00:04:41;4.65;;;2.35;;
35699;SDS011;21818;51.078;12.108;2022-12-18T00:07:06;4.28;;;2.55;;
35699;SDS011;21818;51.078;12.108;2022-12-18T00:09:32;5.18;;;2.85;;
35699;SDS011;21818;51.078;12.108;2022-12-18T00:11:58;5.57;;;2.88;;
35699;SDS011;21818;51.078;12.108;2022-12-18T00:14:23;5.88;;;3.20;;
35699;SDS011;21818;51.078;12.108;2022-12-18T00:16:49;6.90;;;3.03;;
35699;SDS011;21818;51.078;12.108;2022-12-18T00:19:16;6.63;;;3.72;;
35699;SDS011;21818;51.078;12.108;2022-12-18T00:21:42;5.97;;;3.17;;
35699;SDS011;21818;51.078;12.108;2022-12-18T00:24:08;5.97;;;3.20;;
35699;SDS011;21818;51.078;12.108;2022-12-18T00:26:35;6.38;;;3.08;;
35699;SDS011;21818;51.078;12.108;2022-12-18T00:29:07;5.68;;;3.15;;
35699;SDS011;21818;51.078;12.108;2022-12-18T00:31:35;5.65;;;3.22;;
35699;SDS011;21818;51.078;12.108;2022-12-18T00:34:02;5.00;;;2.88;;
35699;SDS011;21818;51.078;12.108;2022-12-18T00:36:29;6.90;;;3.72;;
35699;SDS011;21818;51.078;12.108;2022-12-18T00:38:56;5.22;;;2.83;;
35699;SDS011;21818;51.078;12.108;2022-12-18T00:41:24;6.30;;;3.22;;
35699;SDS011;21818;51.078;12.108;2022-12-18T00:44:09;8.90;;;3.95;;
35699;SDS011;21818;51.078;12.108;2022-12-18T00:46:36;6.50;;;3.22;;
35699;SDS011;21818;51.078;12.108;2022-12-18T00:49:02;7.57;;;4.03;;
35699;SDS011;21818;51.078;12.108;2022-12-18T00:51:28;4.65;;;3.00;;
35699;SDS011;21818;51.078;12.108;2022-12-18T00:53:54;6.13;;;3.55;;
35699;SDS011;21818;51.078;12.108;2022-12-18T00:56:19;5.85;;;3.45;;
35699;SDS011;21818;51.078;12.108;2022-12-18T00:58:45;8.00;;;3.55;;
35699;SDS011;21818;51.078;12.108;2022-12-18T01:01:11;7.93;;;3.90;;
35699;SDS011;21818;51.078;12.108;2022-12-18T01:03:36;6.95;;;3.47;;
35699;SDS011;21818;51.078;12.108;2022-12-18T01:06:06;4.80;;;2.83;;
35699;SDS011;21818;51.078;12.108;2022-12-18T01:08:33;6.22;;;3.42;;
35699;SDS011;21818;51.078;12.108;2022-12-18T01:10:58;4.57;;;2.90;;
35699;SDS011;21818;51.078;12.108;2022-12-18T01:13:24;4.95;;;2.60;;
35699;SDS011;21818;51.078;12.108;2022-12-18T01:15:50;4.43;;;2.70;;
35699;SDS011;21818;51.078;12.108;2022-12-18T01:18:16;5.50;;;2.97;;
35699;SDS011;21818;51.078;12.108;2022-12-18T01:20:41;5.25;;;3.25;;
35699;SDS011;21818;51.078;12.108;2022-12-18T01:23:07;5.22;;;2.90;;
35699;SDS011;21818;51.078;12.108;2022-12-18T01:25:35;7.10;;;3.45;;
35699;SDS011;21818;51.078;12.108;2022-12-18T01:28:01;7.53;;;3.08;;
35699;SDS011;21818;51.078;12.108;2022-12-18T01:30:27;6.97;;;3.78;;
35699;SDS011;21818;51.078;12.108;2022-12-18T01:32:53;6.57;;;3.20;;
35699;SDS011;21818;51.078;12.108;2022-12-18T01:35:18;8.55;;;4.20;;
35699;SDS011;21818;51.078;12.108;2022-12-18T01:37:44;5.90;;;3.15;;
35699;SDS011;21818;51.078;12.108;2022-12-18T01:40:09;5.88;;;3.50;;
35699;SDS011;21818;51.078;12.108;2022-12-18T01:42:35;8.10;;;4.00;;
35699;SDS011;21818;51.078;12.108;2022-12-18T01:50:14;5.95;;;3.10;;
35699;SDS011;21818;51.078;12.108;2022-12-18T01:52:53;7.38;;;3.67;;
35699;SDS011;21818;51.078;12.108;2022-12-18T01:55:25;6.57;;;3.30;;
35699;SDS011;21818;51.078;12.108;2022-12-18T01:57:55;10.13;;;3.15;;
35699;SDS011;21818;51.078;12.108;2022-12-18T02:00:23;6.03;;;3.45;;
35699;SDS011;21818;51.078;12.108;2022-12-18T02:02:50;6.80;;;3.28;;
35699;SDS011;21818;51.078;12.108;2022-12-18T02:05:20;8.63;;;3.35;;
35699;SDS011;21818;51.078;12.108;2022-12-18T02:10:33;7.45;;;3.50;;
35699;SDS011;21818;51.078;12.108;2022-12-18T02:13:14;7.95;;;3.70;;
35699;SDS011;21818;51.078;12.108;2022-12-18T02:15:51;6.57;;;3.38;;
35699;SDS011;21818;51.078;12.108;2022-12-18T02:20:48;5.80;;;3.28;;
35699;SDS011;21818;51.078;12.108;2022-12-18T02:26:16;5.30;;;2.75;;
35699;SDS011;21818;51.078;12.108;2022-12-18T02:29:01;5.03;;;2.80;;
35699;SDS011;21818;51.078;12.108;2022-12-18T02:31:35;8.25;;;3.55;;
35699;SDS011;21818;51.078;12.108;2022-12-18T02:34:04;6.57;;;3.45;;
35699;SDS011;21818;51.078;12.108;2022-12-18T02:36:33;6.65;;;3.28;;
35699;SDS011;21818;51.078;12.108;2022-12-18T02:39:01;6.28;;;3.50;;
35699;SDS011;21818;51.078;12.108;2022-12-18T02:41:28;4.40;;;2.88;;
35699;SDS011;21818;51.078;12.108;2022-12-18T02:43:56;4.82;;;2.85;;
35699;SDS011;21818;51.078;12.108;2022-12-18T02:49:26;7.93;;;3.65;;
35699;SDS011;21818;51.078;12.108;2022-12-18T02:51:55;6.00;;;3.20;;
35699;SDS011;21818;51.078;12.108;2022-12-18T02:57:18;4.82;;;2.60;;
35699;SDS011;21818;51.078;12.108;2022-12-18T03:00:11;4.63;;;2.63;;
35699;SDS011;21818;51.078;12.108;2022-12-18T03:02:44;5.53;;;2.75;;
35699;SDS011;21818;51.078;12.108;2022-12-18T03:08:20;6.63;;;3.83;;
35699;SDS011;21818;51.078;12.108;2022-12-18T03:10:50;7.00;;;3.42;;
35699;SDS011;21818;51.078;12.108;2022-12-18T03:13:23;5.47;;;3.10;;
35699;SDS011;21818;51.078;12.108;2022-12-18T03:15:53;6.25;;;3.17;;
35699;SDS011;21818;51.078;12.108;2022-12-18T03:18:23;7.63;;;3.13;;
35699;SDS011;21818;51.078;12.108;2022-12-18T03:20:55;7.38;;;3.35;;
35699;SDS011;21818;51.078;12.108;2022-12-18T03:23:26;9.20;;;3.75;;
35699;SDS011;21818;51.078;12.108;2022-12-18T03:25:56;5.25;;;3.35;;
35699;SDS011;21818;51.078;12.108;2022-12-18T03:28:26;5.63;;;3.42;;
35699;SDS011;21818;51.078;12.108;2022-12-18T03:30:56;6.28;;;3.42;;
35699;SDS011;21818;51.078;12.108;2022-12-18T03:33:25;5.50;;;3.30;;
35699;SDS011;21818;51.078;12.108;2022-12-18T03:35:59;7.78;;;3.58;;
35699;SDS011;21818;51.078;12.108;2022-12-18T03:38:25;6.32;;;3.00;;
35699;SDS011;21818;51.078;12.108;2022-12-18T03:43:36;6.18;;;3.30;;
35699;SDS011;21818;51.078;12.108;2022-12-18T03:46:50;6.03;;;3.28;;
35699;SDS011;21818;51.078;12.108;2022-12-18T03:49:35;5.22;;;2.70;;
35699;SDS011;21818;51.078;12.108;2022-12-18T03:52:12;8.00;;;3.38;;
35699;SDS011;21818;51.078;12.108;2022-12-18T03:54:45;6.05;;;3.35;;
35699;SDS011;21818;51.078;12.108;2022-12-18T03:57:16;6.05;;;3.00;;
35699;SDS011;21818;51.078;12.108;2022-12-18T03:59:45;8.40;;;3.40;;
35699;SDS011;21818;51.078;12.108;2022-12-18T04:02:15;6.30;;;2.95;;
35699;SDS011;21818;51.078;12.108;2022-12-18T04:04:42;5.53;;;3.00;;
35699;SDS011;21818;51.078;12.108;2022-12-18T04:07:09;7.28;;;3.97;;
35699;SDS011;21818;51.078;12.108;2022-12-18T04:09:36;5.57;;;3.25;;
35699;SDS011;21818;51.078;12.108;2022-12-18T04:12:04;7.55;;;3.03;;
35699;SDS011;21818;51.078;12.108;2022-12-18T04:14:30;4.45;;;2.78;;
35699;SDS011;21818;51.078;12.108;2022-12-18T04:17:00;5.32;;;3.03;;
35699;SDS011;21818;51.078;12.108;2022-12-18T04:19:27;4.82;;;3.13;;
35699;SDS011;21818;51.078;12.108;2022-12-18T04:21:52;7.65;;;3.95;;
35699;SDS011;21818;51.078;12.108;2022-12-18T04:24:18;6.63;;;3.35;;
35699;SDS011;21818;51.078;12.108;2022-12-18T04:26:44;5.15;;;3.00;;
35699;SDS011;21818;51.078;12.108;2022-12-18T04:29:10;4.28;;;2.60;;
35699;SDS011;21818;51.078;12.108;2022-12-18T04:31:36;7.85;;;3.45;;
35699;SDS011;21818;51.078;12.108;2022-12-18T04:34:01;7.18;;;3.58;;
35699;SDS011;21818;51.078;12.108;2022-12-18T04:36:27;5.65;;;3.17;;
35699;SDS011;21818;51.078;12.108;2022-12-18T04:38:53;6.22;;;3.25;;
35699;SDS011;21818;51.078;12.108;2022-12-18T04:41:19;4.20;;;2.90;;
35699;SDS011;21818;51.078;12.108;2022-12-18T04:43:44;5.63;;;3.20;;
35699;SDS011;21818;51.078;12.108;2022-12-18T04:46:10;7.65;;;3.53;;
35699;SDS011;21818;51.078;12.108;2022-12-18T04:48:36;6.10;;;2.97;;
35699;SDS011;21818;51.078;12.108;2022-12-18T04:51:02;5.53;;;2.97;;
35699;SDS011;21818;51.078;12.108;2022-12-18T04:53:29;4.88;;;2.63;;
35699;SDS011;21818;51.078;12.108;2022-12-18T04:56:11;4.72;;;3.08;;
35699;SDS011;21818;51.078;12.108;2022-12-18T04:58:39;7.75;;;3.40;;
35699;SDS011;21818;51.078;12.108;2022-12-18T05:01:06;5.18;;;3.10;;
35699;SDS011;21818;51.078;12.108;2022-12-18T05:03:32;4.50;;;2.60;;
35699;SDS011;21818;51.078;12.108;2022-12-18T05:05:59;5.57;;;2.97;;
35699;SDS011;21818;51.078;12.108;2022-12-18T05:08:25;6.13;;;3.20;;
35699;SDS011;21818;51.078;12.108;2022-12-18T05:10:57;8.07;;;3.03;;
35699;SDS011;21818;51.078;12.108;2022-12-18T05:13:24;4.70;;;2.75;;
35699;SDS011;21818;51.078;12.108;2022-12-18T05:15:53;6.55;;;2.90;;
35699;SDS011;21818;51.078;12.108;2022-12-18T05:18:19;4.53;;;2.65;;
35699;SDS011;21818;51.078;12.108;2022-12-18T05:20:45;4.68;;;3.00;;
35699;SDS011;21818;51.078;12.108;2022-12-18T05:23:11;5.70;;;3.00;;
35699;SDS011;21818;51.078;12.108;2022-12-18T05:25:36;4.05;;;2.50;;
35699;SDS011;21818;51.078;12.108;2022-12-18T05:28:02;6.07;;;2.88;;
35699;SDS011;21818;51.078;12.108;2022-12-18T05:30:28;4.85;;;2.42;;
35699;SDS011;21818;51.078;12.108;2022-12-18T05:32:53;7.03;;;2.95;;
35699;SDS011;21818;51.078;12.108;2022-12-18T05:35:19;3.97;;;2.17;;
35699;SDS011;21818;51.078;12.108;2022-12-18T05:37:45;4.75;;;2.58;;
35699;SDS011;21818;51.078;12.108;2022-12-18T05:40:11;5.00;;;2.92;;
35699;SDS011;21818;51.078;12.108;2022-12-18T05:42:37;5.38;;;2.88;;
35699;SDS011;21818;51.078;12.108;2022-12-18T05:45:03;5.15;;;2.85;;
35699;SDS011;21818;51.078;12.108;2022-12-18T05:47:29;5.05;;;2.70;;
35699;SDS011;21818;51.078;12.108;2022-12-18T05:49:55;4.32;;;2.70;;
35699;SDS011;21818;51.078;12.108;2022-12-18T05:52:21;6.15;;;3.25;;
35699;SDS011;21818;51.078;12.108;2022-12-18T05:54:47;4.38;;;2.88;;
35699;SDS011;21818;51.078;12.108;2022-12-18T05:57:13;6.00;;;2.90;;
35699;SDS011;21818;51.078;12.108;2022-12-18T05:59:38;5.13;;;2.60;;
35699;SDS011;21818;51.078;12.108;2022-12-18T06:02:04;6.07;;;2.92;;
35699;SDS011;21818;51.078;12.108;2022-12-18T06:04:30;6.50;;;2.83;;
35699;SDS011;21818;51.078;12.108;2022-12-18T06:06:56;5.80;;;2.83;;
35699;SDS011;21818;51.078;12.108;2022-12-18T06:09:22;4.50;;;2.65;;
35699;SDS011;21818;51.078;12.108;2022-12-18T06:11:48;6.68;;;2.72;;
35699;SDS011;21818;51.078;12.108;2022-12-18T06:14:13;3.78;;;2.20;;
35699;SDS011;21818;51.078;12.108;2022-12-18T06:16:42;4.82;;;2.58;;
35699;SDS011;21818;51.078;12.108;2022-12-18T06:19:07;5.15;;;3.00;;
35699;SDS011;21818;51.078;12.108;2022-12-18T06:21:38;6.45;;;3.03;;
35699;SDS011;21818;51.078;12.108;2022-12-18T06:24:04;4.70;;;2.33;;
35699;SDS011;21818;51.078;12.108;2022-12-18T06:26:30;7.07;;;3.50;;
35699;SDS011;21818;51.078;12.108;2022-12-18T06:28:55;4.25;;;2.50;;
35699;SDS011;21818;51.078;12.108;2022-12-18T06:31:21;5.20;;;2.22;;
35699;SDS011;21818;51.078;12.108;2022-12-18T06:33:46;3.65;;;2.17;;
35699;SDS011;21818;51.078;12.108;2022-12-18T06:36:12;4.38;;;2.35;;
35699;SDS011;21818;51.078;12.108;2022-12-18T06:38:39;4.43;;;2.17;;
35699;SDS011;21818;51.078;12.108;2022-12-18T06:41:10;3.70;;;2.20;;
35699;SDS011;21818;51.078;12.108;2022-12-18T06:43:41;4.28;;;2.20;;
35699;SDS011;21818;51.078;12.108;2022-12-18T06:46:06;6.65;;;2.83;;
35699;SDS011;21818;51.078;12.108;2022-12-18T06:48:33;3.95;;;2.03;;
35699;SDS011;21818;51.078;12.108;2022-12-18T06:50:58;4.85;;;2.33;;
35699;SDS011;21818;51.078;12.108;2022-12-18T06:53:24;3.95;;;2.08;;
35699;SDS011;21818;51.078;12.108;2022-12-18T06:55:50;5.82;;;2.67;;
35699;SDS011;21818;51.078;12.108;2022-12-18T06:58:16;5.00;;;2.40;;
35699;SDS011;21818;51.078;12.108;2022-12-18T07:00:42;6.32;;;2.67;;
35699;SDS011;21818;51.078;12.108;2022-12-18T07:03:08;3.95;;;1.98;;
35699;SDS011;21818;51.078;12.108;2022-12-18T07:05:34;4.25;;;2.15;;
35699;SDS011;21818;51.078;12.108;2022-12-18T07:08:04;4.05;;;2.72;;
35699;SDS011;21818;51.078;12.108;2022-12-18T07:10:29;3.35;;;2.10;;
35699;SDS011;21818;51.078;12.108;2022-12-18T07:12:55;11.73;;;3.80;;
35699;SDS011;21818;51.078;12.108;2022-12-18T07:15:21;8.98;;;3.50;;
35699;SDS011;21818;51.078;12.108;2022-12-18T07:17:46;10.45;;;3.47;;
35699;SDS011;21818;51.078;12.108;2022-12-18T07:20:12;8.95;;;3.50;;
35699;SDS011;21818;51.078;12.108;2022-12-18T07:22:37;14.40;;;3.80;;
35699;SDS011;21818;51.078;12.108;2022-12-18T07:25:03;7.55;;;3.20;;
35699;SDS011;21818;51.078;12.108;2022-12-18T07:27:29;17.42;;;5.03;;
35699;SDS011;21818;51.078;12.108;2022-12-18T07:29:55;13.82;;;3.70;;
35699;SDS011;21818;51.078;12.108;2022-12-18T07:32:20;14.63;;;3.33;;
35699;SDS011;21818;51.078;12.108;2022-12-18T07:34:46;14.20;;;3.72;;
35699;SDS011;21818;51.078;12.108;2022-12-18T07:37:11;12.93;;;3.97;;
35699;SDS011;21818;51.078;12.108;2022-12-18T07:39:37;7.22;;;3.47;;
35699;SDS011;21818;51.078;12.108;2022-12-18T07:42:03;9.52;;;3.17;;
35699;SDS011;21818;51.078;12.108;2022-12-18T07:44:47;9.88;;;3.13;;
35699;SDS011;21818;51.078;12.108;2022-12-18T07:47:12;7.90;;;3.08;;
35699;SDS011;21818;51.078;12.108;2022-12-18T07:49:38;12.30;;;3.80;;
35699;SDS011;21818;51.078;12.108;2022-12-18T07:52:03;11.65;;;3.22;;
35699;SDS011;21818;51.078;12.108;2022-12-18T07:54:29;18.45;;;3.63;;
35699;SDS011;21818;51.078;12.108;2022-12-18T07:56:55;6.90;;;3.03;;
35699;SDS011;21818;51.078;12.108;2022-12-18T07:59:20;8.52;;;2.97;;
35699;SDS011;21818;51.078;12.108;2022-12-18T08:01:46;11.95;;;3.40;;
35699;SDS011;21818;51.078;12.108;2022-12-18T08:04:11;11.60;;;4.38;;
35699;SDS011;21818;51.078;12.108;2022-12-18T08:06:37;8.85;;;4.15;;
35699;SDS011;21818;51.078;12.108;2022-12-18T08:09:03;14.15;;;3.40;;
35699;SDS011;21818;51.078;12.108;2022-12-18T08:11:28;9.70;;;3.95;;
35699;SDS011;21818;51.078;12.108;2022-12-18T08:13:54;6.35;;;2.75;;
35699;SDS011;21818;51.078;12.108;2022-12-18T08:16:21;12.23;;;3.20;;
35699;SDS011;21818;51.078;12.108;2022-12-18T08:18:47;8.52;;;3.08;;
35699;SDS011;21818;51.078;12.108;2022-12-18T08:21:14;8.73;;;2.65;;
35699;SDS011;21818;51.078;12.108;2022-12-18T08:23:42;8.70;;;3.95;;
35699;SDS011;21818;51.078;12.108;2022-12-18T08:26:07;11.63;;;3.47;;
35699;SDS011;21818;51.078;12.108;2022-12-18T08:28:33;8.10;;;3.22;;
35699;SDS011;21818;51.078;12.108;2022-12-18T08:30:59;9.38;;;3.20;;
35699;SDS011;21818;51.078;12.108;2022-12-18T08:33:25;10.80;;;3.28;;
35699;SDS011;21818;51.078;12.108;2022-12-18T08:35:51;9.10;;;3.63;;
35699;SDS011;21818;51.078;12.108;2022-12-18T08:38:17;9.80;;;3.58;;
35699;SDS011;21818;51.078;12.108;2022-12-18T08:40:42;7.30;;;2.75;;
35699;SDS011;21818;51.078;12.108;2022-12-18T08:43:09;6.32;;;2.83;;
35699;SDS011;21818;51.078;12.108;2022-12-18T08:45:55;8.13;;;2.70;;
35699;SDS011;21818;51.078;12.108;2022-12-18T08:48:21;8.05;;;2.65;;
35699;SDS011;21818;51.078;12.108;2022-12-18T08:50:56;8.93;;;3.15;;
35699;SDS011;21818;51.078;12.108;2022-12-18T08:53:23;11.23;;;3.15;;
35699;SDS011;21818;51.078;12.108;2022-12-18T08:55:49;9.43;;;3.28;;
35699;SDS011;21818;51.078;12.108;2022-12-18T08:58:14;7.18;;;2.92;;
35699;SDS011;21818;51.078;12.108;2022-12-18T09:00:40;9.15;;;2.75;;
35699;SDS011;21818;51.078;12.108;2022-12-18T09:03:10;5.75;;;2.55;;
35699;SDS011;21818;51.078;12.108;2022-12-18T09:05:40;6.65;;;2.50;;
35699;SDS011;21818;51.078;12.108;2022-12-18T09:08:05;6.15;;;2.40;;
35699;SDS011;21818;51.078;12.108;2022-12-18T09:10:31;7.75;;;3.03;;
35699;SDS011;21818;51.078;12.108;2022-12-18T09:12:57;5.70;;;2.30;;
35699;SDS011;21818;51.078;12.108;2022-12-18T09:15:23;5.03;;;2.22;;
35699;SDS011;21818;51.078;12.108;2022-12-18T09:17:49;8.10;;;2.58;;
35699;SDS011;21818;51.078;12.108;2022-12-18T09:20:15;5.20;;;2.50;;
35699;SDS011;21818;51.078;12.108;2022-12-18T09:22:41;6.65;;;2.63;;
35699;SDS011;21818;51.078;12.108;2022-12-18T09:25:07;7.82;;;3.00;;
35699;SDS011;21818;51.078;12.108;2022-12-18T09:27:33;9.27;;;4.10;;
35699;SDS011;21818;51.078;12.108;2022-12-18T09:29:59;7.40;;;2.95;;
35699;SDS011;21818;51.078;12.108;2022-12-18T09:32:25;7.90;;;3.92;;
35699;SDS011;21818;51.078;12.108;2022-12-18T09:34:50;4.82;;;2.30;;
35699;SDS011;21818;51.078;12.108;2022-12-18T09:37:16;9.25;;;2.40;;
35699;SDS011;21818;51.078;12.108;2022-12-18T09:39:42;6.82;;;2.20;;
35699;SDS011;21818;51.078;12.108;2022-12-18T09:42:09;4.90;;;2.20;;
35699;SDS011;21818;51.078;12.108;2022-12-18T09:44:45;9.68;;;3.63;;
35699;SDS011;21818;51.078;12.108;2022-12-18T09:47:17;7.13;;;2.08;;
35699;SDS011;21818;51.078;12.108;2022-12-18T09:49:44;10.38;;;4.18;;
35699;SDS011;21818;51.078;12.108;2022-12-18T09:52:26;8.85;;;3.22;;
35699;SDS011;21818;51.078;12.108;2022-12-18T09:55:03;8.07;;;3.00;;
35699;SDS011;21818;51.078;12.108;2022-12-18T09:58:26;5.40;;;2.40;;
35699;SDS011;21818;51.078;12.108;2022-12-18T10:00:45;6.28;;;2.40;;
35699;SDS011;21818;51.078;12.108;2022-12-18T10:03:12;8.73;;;3.50;;
35699;SDS011;21818;51.078;12.108;2022-12-18T10:08:40;9.75;;;2.70;;
35699;SDS011;21818;51.078;12.108;2022-12-18T10:11:22;6.28;;;2.38;;
35699;SDS011;21818;51.078;12.108;2022-12-18T10:14:26;6.78;;;2.42;;
35699;SDS011;21818;51.078;12.108;2022-12-18T10:19:57;6.25;;;2.63;;
35699;SDS011;21818;51.078;12.108;2022-12-18T10:27:55;7.22;;;2.22;;
35699;SDS011;21818;51.078;12.108;2022-12-18T10:30:24;3.55;;;1.90;;
35699;SDS011;21818;51.078;12.108;2022-12-18T10:32:50;8.65;;;2.95;;
35699;SDS011;21818;51.078;12.108;2022-12-18T10:35:21;5.68;;;2.30;;
35699;SDS011;21818;51.078;12.108;2022-12-18T10:40:32;6.07;;;2.67;;
35699;SDS011;21818;51.078;12.108;2022-12-18T10:43:12;4.90;;;2.28;;
35699;SDS011;21818;51.078;12.108;2022-12-18T10:45:39;5.60;;;2.83;;
35699;SDS011;21818;51.078;12.108;2022-12-18T10:48:17;6.93;;;2.47;;
35699;SDS011;21818;51.078;12.108;2022-12-18T10:50:46;6.32;;;2.58;;
35699;SDS011;21818;51.078;12.108;2022-12-18T10:53:17;5.40;;;2.47;;
35699;SDS011;21818;51.078;12.108;2022-12-18T10:55:48;7.00;;;2.35;;
35699;SDS011;21818;51.078;12.108;2022-12-18T10:58:16;6.57;;;2.30;;
35699;SDS011;21818;51.078;12.108;2022-12-18T11:06:23;4.50;;;2.22;;
35699;SDS011;21818;51.078;12.108;2022-12-18T11:09:07;7.45;;;2.30;;
35699;SDS011;21818;51.078;12.108;2022-12-18T11:11:53;3.10;;;1.65;;
35699;SDS011;21818;51.078;12.108;2022-12-18T11:14:25;7.50;;;2.22;;
35699;SDS011;21818;51.078;12.108;2022-12-18T11:17:16;6.68;;;2.83;;
35699;SDS011;21818;51.078;12.108;2022-12-18T11:20:04;4.13;;;1.88;;
35699;SDS011;21818;51.078;12.108;2022-12-18T11:22:33;5.60;;;2.60;;
35699;SDS011;21818;51.078;12.108;2022-12-18T11:27:30;7.15;;;2.30;;
35699;SDS011;21818;51.078;12.108;2022-12-18T11:32:43;7.15;;;1.95;;
35699;SDS011;21818;51.078;12.108;2022-12-18T11:35:17;5.65;;;1.77;;
35699;SDS011;21818;51.078;12.108;2022-12-18T11:37:53;6.78;;;2.35;;
35699;SDS011;21818;51.078;12.108;2022-12-18T11:40:30;6.18;;;2.38;;
35699;SDS011;21818;51.078;12.108;2022-12-18T11:43:21;6.65;;;2.53;;
35699;SDS011;21818;51.078;12.108;2022-12-18T11:46:13;5.57;;;2.08;;
35699;SDS011;21818;51.078;12.108;2022-12-18T11:48:46;7.28;;;2.45;;
35699;SDS011;21818;51.078;12.108;2022-12-18T11:51:32;4.03;;;1.98;;
35699;SDS011;21818;51.078;12.108;2022-12-18T11:54:12;4.55;;;1.95;;
35699;SDS011;21818;51.078;12.108;2022-12-18T11:56:42;4.30;;;2.00;;
35699;SDS011;21818;51.078;12.108;2022-12-18T12:01:51;5.03;;;2.20;;
35699;SDS011;21818;51.078;12.108;2022-12-18T12:04:35;3.30;;;1.80;;
35699;SDS011;21818;51.078;12.108;2022-12-18T12:10:33;5.43;;;1.90;;
35699;SDS011;21818;51.078;12.108;2022-12-18T12:13:29;5.93;;;1.90;;
35699;SDS011;21818;51.078;12.108;2022-12-18T12:16:21;5.60;;;2.13;;
35699;SDS011;21818;51.078;12.108;2022-12-18T12:19:04;4.18;;;1.52;;
35699;SDS011;21818;51.078;12.108;2022-12-18T12:21:58;3.78;;;2.05;;
35699;SDS011;21818;51.078;12.108;2022-12-18T12:24:55;5.97;;;2.00;;
35699;SDS011;21818;51.078;12.108;2022-12-18T12:27:37;4.18;;;1.80;;
35699;SDS011;21818;51.078;12.108;2022-12-18T12:30:16;2.92;;;1.80;;
35699;SDS011;21818;51.078;12.108;2022-12-18T12:36:09;4.28;;;1.88;;
35699;SDS011;21818;51.078;12.108;2022-12-18T12:39:06;4.68;;;2.20;;
35699;SDS011;21818;51.078;12.108;2022-12-18T12:41:37;3.95;;;2.22;;
35699;SDS011;21818;51.078;12.108;2022-12-18T12:44:30;2.63;;;1.38;;
35699;SDS011;21818;51.078;12.108;2022-12-18T12:47:06;3.33;;;1.92;;
35699;SDS011;21818;51.078;12.108;2022-12-18T12:49:38;4.22;;;2.03;;
35699;SDS011;21818;51.078;12.108;2022-12-18T12:52:06;3.78;;;1.92;;
35699;SDS011;21818;51.078;12.108;2022-12-18T12:54:37;5.03;;;2.08;;
35699;SDS011;21818;51.078;12.108;2022-12-18T12:57:22;5.00;;;2.13;;
35699;SDS011;21818;51.078;12.108;2022-12-18T13:11:38;4.72;;;2.22;;
35699;SDS011;21818;51.078;12.108;2022-12-18T13:14:32;3.25;;;1.65;;
35699;SDS011;21818;51.078;12.108;2022-12-18T13:19:45;5.10;;;2.05;;
35699;SDS011;21818;51.078;12.108;2022-12-18T13:22:37;5.18;;;2.13;;
35699;SDS011;21818;51.078;12.108;2022-12-18T13:30:58;6.63;;;1.85;;
35699;SDS011;21818;51.078;12.108;2022-12-18T13:36:14;3.60;;;1.65;;
35699;SDS011;21818;51.078;12.108;2022-12-18T13:44:37;3.72;;;1.65;;
35699;SDS011;21818;51.078;12.108;2022-12-18T13:47:05;4.30;;;1.75;;
35699;SDS011;21818;51.078;12.108;2022-12-18T13:49:49;3.13;;;1.67;;
35699;SDS011;21818;51.078;12.108;2022-12-18T13:54:50;3.33;;;2.10;;
35699;SDS011;21818;51.078;12.108;2022-12-18T14:02:47;3.00;;;1.50;;
35699;SDS011;21818;51.078;12.108;2022-12-18T14:05:23;2.88;;;2.10;;
35699;SDS011;21818;51.078;12.108;2022-12-18T14:07:50;2.42;;;1.30;;
35699;SDS011;21818;51.078;12.108;2022-12-18T14:10:16;6.75;;;2.08;;
35699;SDS011;21818;51.078;12.108;2022-12-18T14:12:49;4.43;;;1.92;;
35699;SDS011;21818;51.078;12.108;2022-12-18T14:17:59;5.75;;;1.90;;
35699;SDS011;21818;51.078;12.108;2022-12-18T14:20:29;4.22;;;1.73;;
35699;SDS011;21818;51.078;12.108;2022-12-18T14:22:56;3.58;;;1.60;;
35699;SDS011;21818;51.078;12.108;2022-12-18T14:25:26;3.90;;;2.00;;
35699;SDS011;21818;51.078;12.108;2022-12-18T14:30:32;4.68;;;1.80;;
35699;SDS011;21818;51.078;12.108;2022-12-18T14:35:37;5.50;;;1.73;;
35699;SDS011;21818;51.078;12.108;2022-12-18T14:41:06;3.15;;;1.77;;
35699;SDS011;21818;51.078;12.108;2022-12-18T14:43:38;3.03;;;1.60;;
35699;SDS011;21818;51.078;12.108;2022-12-18T14:48:52;3.42;;;1.88;;
35699;SDS011;21818;51.078;12.108;2022-12-18T14:51:19;4.32;;;1.70;;
35699;SDS011;21818;51.078;12.108;2022-12-18T14:56:17;3.15;;;1.98;;
35699;SDS011;21818;51.078;12.108;2022-12-18T14:59:01;3.58;;;1.80;;
35699;SDS011;21818;51.078;12.108;2022-12-18T15:01:29;4.35;;;1.70;;
35699;SDS011;21818;51.078;12.108;2022-12-18T15:04:01;3.25;;;1.52;;
35699;SDS011;21818;51.078;12.108;2022-12-18T15:08:55;2.78;;;1.55;;
35699;SDS011;21818;51.078;12.108;2022-12-18T15:17:18;1.83;;;1.50;;
35699;SDS011;21818;51.078;12.108;2022-12-18T15:19:47;5.32;;;2.00;;
35699;SDS011;21818;51.078;12.108;2022-12-18T15:22:22;2.47;;;1.50;;
35699;SDS011;21818;51.078;12.108;2022-12-18T15:24:55;2.97;;;1.67;;
35699;SDS011;21818;51.078;12.108;2022-12-18T15:27:24;3.90;;;2.00;;
35699;SDS011;21818;51.078;12.108;2022-12-18T15:30:00;3.78;;;1.77;;
35699;SDS011;21818;51.078;12.108;2022-12-18T15:32:38;2.28;;;1.40;;
35699;SDS011;21818;51.078;12.108;2022-12-18T15:37:37;4.15;;;1.58;;
35699;SDS011;21818;51.078;12.108;2022-12-18T15:40:03;2.97;;;1.60;;
35699;SDS011;21818;51.078;12.108;2022-12-18T15:42:29;3.95;;;1.73;;
35699;SDS011;21818;51.078;12.108;2022-12-18T15:45:13;3.67;;;1.42;;
35699;SDS011;21818;51.078;12.108;2022-12-18T15:47:39;3.28;;;1.38;;
35699;SDS011;21818;51.078;12.108;2022-12-18T15:50:06;4.90;;;1.65;;
35699;SDS011;21818;51.078;12.108;2022-12-18T15:52:36;2.47;;;1.50;;
35699;SDS011;21818;51.078;12.108;2022-12-18T15:55:12;3.58;;;1.50;;
35699;SDS011;21818;51.078;12.108;2022-12-18T15:57:58;3.40;;;1.48;;
35699;SDS011;21818;51.078;12.108;2022-12-18T16:00:24;2.95;;;1.73;;
35699;SDS011;21818;51.078;12.108;2022-12-18T16:02:50;2.33;;;1.50;;
35699;SDS011;21818;51.078;12.108;2022-12-18T16:05:17;2.65;;;1.58;;
35699;SDS011;21818;51.078;12.108;2022-12-18T16:07:44;1.90;;;1.17;;
35699;SDS011;21818;51.078;12.108;2022-12-18T16:10:10;5.78;;;1.95;;
35699;SDS011;21818;51.078;12.108;2022-12-18T16:12:36;3.03;;;1.60;;
35699;SDS011;21818;51.078;12.108;2022-12-18T16:15:02;2.95;;;1.65;;
35699;SDS011;21818;51.078;12.108;2022-12-18T16:17:29;2.78;;;1.50;;
35699;SDS011;21818;51.078;12.108;2022-12-18T16:19:54;2.17;;;1.30;;
35699;SDS011;21818;51.078;12.108;2022-12-18T16:22:21;2.67;;;1.30;;
35699;SDS011;21818;51.078;12.108;2022-12-18T16:24:49;2.70;;;1.55;;
35699;SDS011;21818;51.078;12.108;2022-12-18T16:27:15;3.20;;;1.50;;
35699;SDS011;21818;51.078;12.108;2022-12-18T16:29:41;3.50;;;1.35;;
35699;SDS011;21818;51.078;12.108;2022-12-18T16:32:08;3.25;;;1.88;;
35699;SDS011;21818;51.078;12.108;2022-12-18T16:34:37;3.03;;;1.75;;
35699;SDS011;21818;51.078;12.108;2022-12-18T16:37:03;3.35;;;1.50;;
35699;SDS011;21818;51.078;12.108;2022-12-18T16:39:30;2.33;;;1.42;;
35699;SDS011;21818;51.078;12.108;2022-12-18T16:41:58;2.17;;;1.42;;
35699;SDS011;21818;51.078;12.108;2022-12-18T16:44:24;2.83;;;1.40;;
35699;SDS011;21818;51.078;12.108;2022-12-18T16:46:50;2.60;;;1.33;;
35699;SDS011;21818;51.078;12.108;2022-12-18T16:49:16;2.80;;;1.40;;
35699;SDS011;21818;51.078;12.108;2022-12-18T16:51:42;2.75;;;1.52;;
35699;SDS011;21818;51.078;12.108;2022-12-18T16:54:09;4.35;;;1.52;;